Time;durP1;ratioP1;P1;durP2;ratioP2;P2;SDS_P1;SDS_P2;PMS_P1;PMS_P2;Temp;Humidity;BMP_temperature;BMP_pressure;BME280_temperature;BME280_humidity;BME280_pressure;Samples;Min_cycle;Max_cycle;Signal;HPM_P1;HPM_P2
2022/10/04 00:02:04;;;;;;;2.33;1.83;;;16.00;74.90;;;;;;5004814;28;20045;-78
2022/10/04 00:04:53;;;;;;;3.28;2.03;;;16.00;75.00;;;;;;5014101;28;20041;-78
2022/10/04 00:07:26;;;;;;;1.80;1.70;;;16.00;74.80;;;;;;5040812;28;20930;-78
2022/10/04 00:10:03;;;;;;;5.90;1.70;;;16.00;74.70;;;;;;5023405;28;20037;-78
2022/10/04 00:12:44;;;;;;;1.77;1.67;;;16.00;74.70;;;;;;5024683;28;20518;-78
2022/10/04 00:15:31;;;;;;;1.95;1.83;;;16.00;74.90;;;;;;5023378;28;20034;-79
2022/10/04 00:18:28;;;;;;;2.38;1.83;;;16.00;74.90;;;;;;5059378;28;20043;-78
2022/10/04 00:20:58;;;;;;;;;;;16.00;74.90;;;;;;5064739;28;20537;-78
2022/10/04 00:23:24;;;;;;;3.33;2.10;;;16.00;74.70;;;;;;5045945;28;19958;-79
2022/10/04 00:25:58;;;;;;;1.98;1.88;;;16.00;74.40;;;;;;5029474;28;20121;-79
2022/10/04 00:28:24;;;;;;;2.00;1.60;;;16.00;74.40;;;;;;5063735;28;20037;-78
2022/10/04 00:31:14;;;;;;;4.40;1.92;;;16.00;74.30;;;;;;5044544;28;20033;-79
2022/10/04 00:33:47;;;;;;;4.13;2.28;;;16.00;74.50;;;;;;5045996;28;20522;-78
2022/10/04 00:36:28;;;;;;;3.60;1.95;;;16.00;74.60;;;;;;5062671;28;20127;-77
2022/10/04 00:39:06;;;;;;;2.85;1.77;;;16.00;74.50;;;;;;5028901;28;20635;-78
2022/10/04 00:41:40;;;;;;;2.40;1.83;;;15.90;74.60;;;;;;5045127;28;20529;-77
2022/10/04 00:44:16;;;;;;;2.78;1.90;;;16.00;74.60;;;;;;5047322;28;20036;-78
2022/10/04 00:46:44;;;;;;;2.35;1.73;;;15.90;74.70;;;;;;5062277;28;20064;-76
2022/10/04 00:49:12;;;;;;;3.15;2.13;;;15.90;74.40;;;;;;5044349;28;20047;-76
2022/10/04 00:51:41;;;;;;;5.05;2.40;;;15.90;74.50;;;;;;5059599;28;20033;-78
2022/10/04 00:54:29;;;;;;;3.28;1.92;;;15.90;74.60;;;;;;5060606;28;20033;-79
2022/10/04 00:56:59;;;;;;;2.55;2.17;;;15.90;74.70;;;;;;5046402;28;20044;-78
2022/10/04 00:59:34;;;;;;;4.25;2.40;;;15.90;74.70;;;;;;5061153;28;20047;-77
2022/10/04 01:02:37;;;;;;;3.70;2.35;;;15.90;74.70;;;;;;5040651;28;20032;-79
2022/10/04 01:05:12;;;;;;;3.17;2.42;;;15.90;74.50;;;;;;5058518;28;20091;-77
2022/10/04 01:07:43;;;;;;;3.58;2.30;;;15.90;74.50;;;;;;5043436;28;20072;-78
2022/10/04 01:10:18;;;;;;;2.47;2.28;;;15.90;74.40;;;;;;5043232;28;20089;-77
2022/10/04 01:13:03;;;;;;;4.85;2.30;;;15.90;74.40;;;;;;5058601;28;20033;-77
2022/10/04 01:15:29;;;;;;;2.63;2.42;;;15.90;74.60;;;;;;5043650;28;20037;-79
2022/10/04 01:18:13;;;;;;;2.25;2.03;;;15.90;74.60;;;;;;5026269;28;20383;-79
2022/10/04 01:20:53;;;;;;;3.42;2.03;;;15.90;74.80;;;;;;5062182;28;20036;-81
2022/10/04 01:23:40;;;;;;;6.53;2.70;;;15.90;74.30;;;;;;5030832;28;20580;-80
2022/10/04 01:26:29;;;;;;;3.00;2.30;;;15.80;74.20;;;;;;5047442;28;20032;-81
2022/10/04 01:28:57;;;;;;;3.17;2.20;;;15.80;74.60;;;;;;5063263;28;20064;-81
2022/10/04 01:31:28;;;;;;;2.85;2.47;;;15.90;74.70;;;;;;5063371;28;20044;-81
2022/10/04 01:33:54;;;;;;;2.88;2.33;;;15.80;74.30;;;;;;5042755;28;20047;-79
2022/10/04 01:36:21;;;;;;;3.65;2.10;;;15.80;74.20;;;;;;5060034;28;20048;-80
2022/10/04 01:38:49;;;;;;;2.25;2.05;;;15.80;74.50;;;;;;5046211;28;20037;-80
2022/10/04 01:41:19;;;;;;;4.18;2.03;;;15.80;74.40;;;;;;5064620;28;20025;-80
2022/10/04 01:43:50;;;;;;;2.20;1.90;;;15.80;74.30;;;;;;5065925;28;20032;-79
2022/10/04 01:46:29;;;;;;;2.65;2.17;;;15.80;74.20;;;;;;5063803;28;20029;-78
2022/10/04 01:48:57;;;;;;;3.70;2.22;;;15.80;74.50;;;;;;5046371;28;20048;-79
2022/10/04 01:51:29;;;;;;;4.68;2.10;;;15.80;74.40;;;;;;5045304;28;20836;-77
2022/10/04 01:54:04;;;;;;;3.78;2.10;;;15.70;74.40;;;;;;5063363;28;20616;-77
2022/10/04 01:56:45;;;;;;;3.25;1.80;;;15.70;74.20;;;;;;5064434;28;20040;-80
2022/10/04 01:59:24;;;;;;;2.83;2.10;;;15.70;74.20;;;;;;5028153;28;20037;-80
2022/10/04 02:01:59;;;;;;;2.63;2.30;;;15.70;74.30;;;;;;5066214;28;20044;-80
2022/10/04 02:04:37;;;;;;;4.40;2.00;;;15.70;74.50;;;;;;5046126;28;20032;-79
2022/10/04 02:07:13;;;;;;;4.18;1.90;;;15.60;74.50;;;;;;5064579;28;20521;-79
2022/10/04 02:09:43;;;;;;;3.00;1.90;;;15.60;74.60;;;;;;5033724;28;20129;-80
2022/10/04 02:12:15;;;;;;;2.53;1.77;;;15.60;74.50;;;;;;5063650;28;20037;-79
2022/10/04 02:14:52;;;;;;;2.58;1.80;;;15.60;74.60;;;;;;5049824;28;20568;-78
2022/10/04 02:17:24;;;;;;;1.88;1.77;;;15.60;74.80;;;;;;5046572;28;20048;-79
2022/10/04 02:19:51;;;;;;;2.88;2.03;;;15.60;74.70;;;;;;5066238;28;20374;-78
2022/10/04 02:22:18;;;;;;;2.17;1.88;;;15.60;74.70;;;;;;5047191;28;20108;-78
2022/10/04 02:24:47;;;;;;;3.80;2.10;;;15.60;74.80;;;;;;5063364;28;20127;-78
2022/10/04 02:27:14;;;;;;;2.17;1.98;;;15.50;74.60;;;;;;5043949;28;20054;-78
2022/10/04 02:29:40;;;;;;;2.03;1.88;;;15.50;74.60;;;;;;5066485;28;20043;-78
2022/10/04 02:34:54;;;;;;;2.42;2.20;;;15.50;74.90;;;;;;5062764;28;20060;-78
2022/10/04 02:37:26;;;;;;;2.20;1.90;;;15.50;74.90;;;;;;5049993;28;20040;-78
2022/10/04 02:40:02;;;;;;;5.03;2.10;;;15.40;74.90;;;;;;5044649;28;20055;-79
2022/10/04 02:42:47;;;;;;;3.55;2.00;;;15.40;75.00;;;;;;5044739;28;20037;-79
2022/10/04 02:45:34;;;;;;;2.40;2.20;;;15.40;75.00;;;;;;5047569;28;20098;-80
2022/10/04 02:48:12;;;;;;;3.10;1.92;;;15.40;75.10;;;;;;5060634;28;20040;-76
2022/10/04 02:50:52;;;;;;;2.53;1.70;;;15.40;75.20;;;;;;5045903;28;20044;-76
2022/10/04 02:53:21;;;;;;;5.95;2.00;;;15.40;75.30;;;;;;5047692;28;20498;-76
2022/10/04 02:55:47;;;;;;;3.45;2.08;;;15.40;75.60;;;;;;5065113;28;20080;-77
2022/10/04 02:58:17;;;;;;;3.38;2.22;;;15.40;75.70;;;;;;5063746;28;20033;-76
2022/10/04 03:00:51;;;;;;;2.38;1.90;;;15.40;75.60;;;;;;5062632;28;20039;-78
2022/10/04 03:03:38;;;;;;;5.78;2.47;;;15.40;75.70;;;;;;5046707;28;20063;-76
2022/10/04 03:06:07;;;;;;;3.70;2.10;;;15.40;75.90;;;;;;5044397;28;20039;-76
2022/10/04 03:08:50;;;;;;;3.47;2.00;;;15.40;75.90;;;;;;5044787;28;20033;-77
2022/10/04 03:11:19;;;;;;;2.95;2.35;;;15.40;75.90;;;;;;5032943;28;20031;-76
2022/10/04 03:13:49;;;;;;;4.80;2.17;;;15.40;75.90;;;;;;5064703;28;20475;-76
2022/10/04 03:16:16;;;;;;;2.85;2.20;;;15.40;75.80;;;;;;5045251;28;20495;-77
2022/10/04 03:18:44;;;;;;;2.15;1.90;;;15.40;75.80;;;;;;5044397;28;20492;-77
2022/10/04 03:21:14;;;;;;;4.40;2.47;;;15.40;75.70;;;;;;5062427;28;20033;-76
2022/10/04 03:23:41;;;;;;;5.88;2.40;;;15.40;75.70;;;;;;5063545;28;20062;-76
2022/10/04 03:26:28;;;;;;;5.03;2.38;;;15.40;75.70;;;;;;5064586;28;20139;-76
2022/10/04 03:28:56;;;;;;;4.22;1.90;;;15.40;76.00;;;;;;5063730;28;20056;-76
2022/10/04 03:31:25;;;;;;;3.17;2.30;;;15.40;75.90;;;;;;5063052;28;20037;-76
2022/10/04 03:33:54;;;;;;;3.08;2.22;;;15.40;75.80;;;;;;5044797;28;20510;-76
2022/10/04 03:36:21;;;;;;;2.67;2.05;;;15.40;76.00;;;;;;5063058;28;20040;-76
2022/10/04 03:38:51;;;;;;;2.17;1.98;;;15.40;76.00;;;;;;5062196;28;20083;-78
2022/10/04 03:41:17;;;;;;;2.72;2.50;;;15.40;76.00;;;;;;5070283;28;20397;-78
2022/10/04 03:43:48;;;;;;;3.88;2.30;;;15.40;76.10;;;;;;5073159;28;20048;-75
2022/10/04 03:46:15;;;;;;;5.25;2.15;;;15.40;76.70;;;;;;5054773;28;20052;-78
2022/10/04 03:48:51;;;;;;;3.22;2.30;;;15.40;76.30;;;;;;5064735;28;20749;-78
2022/10/04 03:51:20;;;;;;;6.15;2.50;;;15.40;76.20;;;;;;5060874;28;20555;-78
2022/10/04 03:53:50;;;;;;;5.22;2.63;;;15.40;76.20;;;;;;5048329;28;20040;-75
2022/10/04 03:56:28;;;;;;;3.72;2.50;;;15.40;76.20;;;;;;5063553;28;20083;-78
2022/10/04 03:58:55;;;;;;;3.55;2.35;;;15.40;76.20;;;;;;5062751;28;20033;-78
2022/10/04 04:01:42;;;;;;;3.78;2.40;;;15.40;76.20;;;;;;5063973;28;20032;-78
2022/10/04 04:04:15;;;;;;;2.97;2.22;;;15.40;76.20;;;;;;5046687;28;20032;-77
2022/10/04 04:06:59;;;;;;;3.40;2.35;;;15.40;76.40;;;;;;5046468;28;20598;-77
2022/10/04 04:09:42;;;;;;;4.85;2.60;;;15.40;76.30;;;;;;5060815;28;20033;-77
2022/10/04 04:12:23;;;;;;;6.28;2.40;;;15.30;76.40;;;;;;5064596;28;20033;-78
2022/10/04 04:14:51;;;;;;;5.88;2.78;;;15.30;76.40;;;;;;5047611;28;20395;-78
2022/10/04 04:17:26;;;;;;;3.83;2.40;;;15.30;76.40;;;;;;5065281;28;20052;-79
2022/10/04 04:20:01;;;;;;;4.07;2.50;;;15.40;76.50;;;;;;5047479;28;20029;-79
2022/10/04 04:22:30;;;;;;;4.20;3.13;;;15.40;76.40;;;;;;5063376;28;20045;-77
2022/10/04 04:25:07;;;;;;;4.22;2.40;;;15.40;76.60;;;;;;5043833;28;20416;-75
2022/10/04 04:27:39;;;;;;;3.95;2.47;;;15.30;76.60;;;;;;5063138;28;20395;-73
2022/10/04 04:30:07;;;;;;;2.95;2.45;;;15.40;76.70;;;;;;5044698;28;20059;-74
2022/10/04 04:32:40;;;;;;;3.28;2.40;;;15.30;76.70;;;;;;5042651;28;20047;-79
2022/10/04 04:35:19;;;;;;;3.35;2.75;;;15.30;76.70;;;;;;5044613;28;20044;-78
2022/10/04 04:38:05;;;;;;;2.97;2.50;;;15.30;76.70;;;;;;5063911;28;20024;-79
2022/10/04 04:40:31;;;;;;;6.32;2.63;;;15.30;76.70;;;;;;5059713;28;20045;-76
2022/10/04 04:43:00;;;;;;;3.17;2.67;;;15.30;76.90;;;;;;5050279;28;20035;-78
2022/10/04 04:45:29;;;;;;;5.47;3.10;;;15.30;76.80;;;;;;5050430;28;20543;-78
2022/10/04 04:47:56;;;;;;;3.22;2.85;;;15.30;77.00;;;;;;5049089;28;20522;-79
2022/10/04 04:50:31;;;;;;;5.85;2.85;;;15.30;77.10;;;;;;5046169;28;20037;-76
2022/10/04 04:53:11;;;;;;;4.65;2.92;;;15.30;77.40;;;;;;5041929;28;20108;-77
2022/10/04 04:55:43;;;;;;;6.57;3.10;;;15.30;77.30;;;;;;5041835;28;20156;-77
2022/10/04 04:58:20;;;;;;;6.28;2.53;;;15.30;77.80;;;;;;5042126;28;20029;-77
2022/10/04 05:01:03;;;;;;;4.63;2.85;;;15.30;77.70;;;;;;5041086;28;20025;-76
2022/10/04 05:03:30;;;;;;;6.93;2.80;;;15.30;77.60;;;;;;5043301;28;20108;-76
2022/10/04 05:05:57;;;;;;;5.57;3.33;;;15.30;77.90;;;;;;5042527;28;20069;-77
2022/10/04 05:08:28;;;;;;;5.97;3.20;;;15.30;78.10;;;;;;5026649;28;20548;-77
2022/10/04 05:11:04;;;;;;;4.07;2.83;;;15.30;78.40;;;;;;5040266;28;20032;-77
2022/10/04 05:13:38;;;;;;;4.32;2.88;;;15.30;78.10;;;;;;5042228;28;20030;-77
2022/10/04 05:16:16;;;;;;;4.55;2.80;;;15.40;78.10;;;;;;5039622;28;20040;-76
2022/10/04 05:18:42;;;;;;;3.50;2.78;;;15.40;77.90;;;;;;5041046;28;20048;-77
2022/10/04 05:21:27;;;;;;;3.25;2.70;;;15.50;77.80;;;;;;5040439;28;20485;-77
2022/10/04 05:23:56;;;;;;;5.40;2.78;;;15.50;77.60;;;;;;5040183;28;20485;-77
2022/10/04 05:26:30;;;;;;;9.15;3.00;;;15.60;77.50;;;;;;5041848;28;21022;-77
2022/10/04 05:29:00;;;;;;;3.78;2.97;;;15.60;77.30;;;;;;5042613;28;20119;-77
2022/10/04 05:31:41;;;;;;;4.88;2.75;;;15.70;77.30;;;;;;5042025;28;20041;-77
2022/10/04 05:34:26;;;;;;;5.03;2.75;;;15.80;76.90;;;;;;5041051;28;20033;-77
2022/10/04 05:37:24;;;;;;;5.72;2.72;;;15.90;76.30;;;;;;5053358;28;20038;-77
2022/10/04 05:40:09;;;;;;;5.70;2.40;;;16.00;76.00;;;;;;5041159;28;20037;-77
2022/10/04 05:42:45;;;;;;;4.07;2.60;;;16.00;75.90;;;;;;5040757;28;20045;-77
2022/10/04 05:45:16;;;;;;;2.75;2.33;;;15.90;75.60;;;;;;5011023;28;20137;-77
2022/10/04 05:47:44;;;;;;;6.75;2.58;;;15.90;75.70;;;;;;5021605;28;20045;-77
2022/10/04 05:50:18;;;;;;;3.25;2.33;;;15.90;75.60;;;;;;5038913;28;20439;-77
2022/10/04 05:52:47;;;;;;;3.20;2.40;;;15.90;75.60;;;;;;5038199;28;20040;-77
2022/10/04 05:55:16;;;;;;;2.83;2.38;;;15.90;75.80;;;;;;5040560;28;20037;-76
2022/10/04 05:58:01;;;;;;;2.58;2.35;;;15.90;75.80;;;;;;5040847;28;20044;-76
2022/10/04 06:01:04;;;;;;;3.22;2.55;;;15.90;76.20;;;;;;5038963;28;20072;-76
2022/10/04 06:03:37;;;;;;;5.35;2.90;;;15.90;76.40;;;;;;5009891;28;20042;-76
2022/10/04 06:06:22;;;;;;;3.33;2.65;;;16.10;75.60;;;;;;5036846;28;20432;-76
2022/10/04 06:09:15;;;;;;;6.85;2.50;;;16.30;75.50;;;;;;5043054;28;20029;-76
2022/10/04 06:11:50;;;;;;;4.50;2.70;;;16.50;74.90;;;;;;5039799;28;20029;-76
2022/10/04 06:14:21;;;;;;;4.05;2.75;;;16.70;74.40;;;;;;5042590;28;20021;-77
2022/10/04 06:16:59;;;;;;;4.93;2.70;;;16.70;73.70;;;;;;5043158;28;20046;-76
2022/10/04 06:19:47;;;;;;;5.25;2.80;;;16.80;73.70;;;;;;5020791;28;20037;-76
2022/10/04 06:22:21;;;;;;;5.50;2.55;;;16.80;73.60;;;;;;5041055;28;20033;-76
2022/10/04 06:24:52;;;;;;;5.32;2.50;;;16.80;73.00;;;;;;5052302;28;20503;-76
2022/10/04 06:27:21;;;;;;;7.85;2.97;;;16.70;73.40;;;;;;5048491;28;20036;-77
2022/10/04 06:30:13;;;;;;;3.90;2.33;;;16.70;73.60;;;;;;5045297;28;20515;-76
2022/10/04 06:32:57;;;;;;;5.57;2.35;;;16.70;74.00;;;;;;5054078;28;20033;-77
2022/10/04 06:35:43;;;;;;;4.50;2.33;;;16.70;74.00;;;;;;5051081;28;20049;-77
2022/10/04 06:38:36;;;;;;;2.83;2.33;;;16.70;73.90;;;;;;5041032;28;20029;-76
2022/10/04 06:41:35;;;;;;;3.17;2.45;;;16.70;73.70;;;;;;5043549;28;20614;-76
2022/10/04 06:44:37;;;;;;;3.40;2.40;;;16.70;73.30;;;;;;5044437;28;20044;-76
2022/10/04 06:47:15;;;;;;;5.85;2.67;;;16.80;73.50;;;;;;5024369;28;20048;-76
2022/10/04 06:49:41;;;;;;;2.38;2.17;;;16.80;73.40;;;;;;5047629;28;20031;-77
2022/10/04 06:52:22;;;;;;;5.47;2.72;;;16.90;73.10;;;;;;5061708;28;20032;-77
2022/10/04 06:55:22;;;;;;;3.80;2.30;;;16.80;73.00;;;;;;5063706;28;20041;-75
2022/10/04 06:58:12;;;;;;;4.30;2.35;;;16.90;73.20;;;;;;5061658;28;20395;-77
2022/10/04 07:00:58;;;;;;;3.55;2.58;;;16.80;71.50;;;;;;5062513;28;20040;-78
2022/10/04 07:03:46;;;;;;;4.03;2.05;;;16.70;69.90;;;;;;5043849;28;20036;-78
2022/10/04 07:06:12;;;;;;;4.57;2.35;;;16.60;70.80;;;;;;5062273;28;20033;-76
2022/10/04 07:08:46;;;;;;;2.47;2.08;;;16.60;71.70;;;;;;5063719;28;20037;-75
2022/10/04 07:11:33;;;;;;;4.10;2.50;;;16.60;72.20;;;;;;5066276;28;20094;-77
2022/10/04 07:14:02;;;;;;;3.35;2.08;;;16.80;72.60;;;;;;5073799;28;20412;-75
2022/10/04 07:16:45;;;;;;;3.72;1.90;;;16.80;71.80;;;;;;5071526;28;20055;-75
2022/10/04 07:19:38;;;;;;;3.10;2.20;;;16.70;71.40;;;;;;5055065;28;20025;-76
2022/10/04 07:22:11;;;;;;;2.60;1.83;;;16.90;71.30;;;;;;5053127;28;20518;-75
2022/10/04 07:24:58;;;;;;;3.17;1.90;;;17.00;71.00;;;;;;5052704;28;20033;-74
2022/10/04 07:27:33;;;;;;;4.05;2.28;;;17.10;70.80;;;;;;5050907;28;20127;-75
2022/10/04 07:30:04;;;;;;;2.93;1.97;;;17.20;70.60;;;;;;5028519;28;20037;-75
2022/10/04 07:32:35;;;;;;;4.57;1.90;;;17.20;70.10;;;;;;5023983;28;20334;-75
2022/10/04 07:35:05;;;;;;;3.88;2.60;;;17.20;69.70;;;;;;5013108;28;20048;-76
2022/10/04 07:37:44;;;;;;;3.20;2.25;;;17.30;69.70;;;;;;5023767;28;20132;-75
2022/10/04 07:40:45;;;;;;;2.58;2.22;;;17.40;69.30;;;;;;5012209;28;20062;-75
2022/10/04 07:43:25;;;;;;;2.45;1.92;;;17.40;69.50;;;;;;4961678;28;20130;-75
2022/10/04 07:46:01;;;;;;;5.47;1.70;;;17.40;69.50;;;;;;4979635;28;20422;-75
2022/10/04 07:48:28;;;;;;;3.38;2.35;;;17.50;69.40;;;;;;4951548;28;20042;-75
2022/10/04 07:51:15;;;;;;;1.92;1.77;;;17.50;69.50;;;;;;4982543;28;20066;-75
2022/10/04 07:53:53;;;;;;;2.92;1.40;;;17.40;69.20;;;;;;4980178;28;20501;-75
2022/10/04 07:56:46;;;;;;;1.92;1.70;;;17.50;69.00;;;;;;4969196;28;20034;-75
2022/10/04 07:59:23;;;;;;;2.25;2.05;;;17.50;68.90;;;;;;4979977;28;20121;-75
2022/10/04 08:02:21;;;;;;;3.78;1.80;;;17.50;68.50;;;;;;4962884;28;20034;-75
2022/10/04 08:05:06;;;;;;;3.47;1.83;;;17.50;68.50;;;;;;4979103;28;20149;-74
2022/10/04 08:07:42;;;;;;;4.15;1.95;;;17.50;68.70;;;;;;4979259;28;20053;-75
2022/10/04 08:10:21;;;;;;;1.55;1.30;;;17.50;68.00;;;;;;4979437;28;20038;-74
2022/10/04 08:12:52;;;;;;;1.50;1.40;;;17.50;68.00;;;;;;4977867;28;20080;-74
2022/10/04 08:15:22;;;;;;;3.70;2.10;;;17.50;67.80;;;;;;4979405;28;20053;-75
2022/10/04 08:18:16;;;;;;;2.05;1.35;;;17.50;68.00;;;;;;5038949;28;20045;-74
2022/10/04 08:20:51;;;;;;;3.05;1.80;;;17.50;67.70;;;;;;5046527;28;20536;-75
2022/10/04 08:23:51;;;;;;;2.13;1.50;;;17.50;67.70;;;;;;5060184;28;20028;-74
2022/10/04 08:26:43;;;;;;;2.28;1.60;;;17.50;67.40;;;;;;5029536;28;20078;-74
2022/10/04 08:29:41;;;;;;;1.67;1.42;;;17.60;67.40;;;;;;5061106;28;20089;-75
2022/10/04 08:32:42;;;;;;;3.03;1.45;;;17.60;66.90;;;;;;5042639;28;20472;-75
2022/10/04 08:35:29;;;;;;;2.72;1.60;;;17.60;67.20;;;;;;5059038;28;20530;-75
2022/10/04 08:38:20;;;;;;;1.70;1.40;;;17.60;66.90;;;;;;5060205;28;20025;-75
2022/10/04 08:41:24;;;;;;;1.95;1.73;;;17.60;66.90;;;;;;5059588;28;20079;-75
2022/10/04 08:44:12;;;;;;;2.45;1.63;;;17.60;66.70;;;;;;4959234;28;20036;-75
2022/10/04 08:47:04;;;;;;;3.28;1.63;;;17.60;67.00;;;;;;4958446;28;20464;-74
2022/10/04 08:49:58;;;;;;;2.28;1.63;;;17.60;67.20;;;;;;4958452;28;20045;-74
2022/10/04 08:52:56;;;;;;;2.65;1.90;;;17.60;67.10;;;;;;4960030;28;20107;-74
2022/10/04 08:55:54;;;;;;;4.20;1.70;;;17.60;67.50;;;;;;4958425;28;20481;-74
2022/10/04 08:58:46;;;;;;;3.17;1.58;;;17.60;67.10;;;;;;4957946;28;20517;-79
2022/10/04 09:01:15;;;;;;;5.03;1.75;;;17.60;67.60;;;;;;4898076;29;20071;-78
2022/10/04 09:03:46;;;;;;;3.63;1.77;;;17.70;67.50;;;;;;4926208;29;20035;-79
2022/10/04 09:06:36;;;;;;;2.60;1.70;;;17.70;66.50;;;;;;4930977;29;20055;-79
2022/10/04 09:10:01;;;;;;;2.97;1.52;;;17.60;65.30;;;;;;4915081;29;20043;-79
2022/10/04 09:12:27;;;;;;;5.50;1.70;;;17.60;65.80;;;;;;4853155;29;20504;-78
2022/10/04 09:15:17;;;;;;;1.40;1.27;;;17.50;65.20;;;;;;4892793;29;20036;-80
2022/10/04 09:17:52;;;;;;;4.20;2.05;;;17.50;65.70;;;;;;4927892;28;20597;-78
2022/10/04 09:20:57;;;;;;;2.15;1.77;;;17.50;65.10;;;;;;4954192;28;20528;-77
2022/10/04 09:23:51;;;;;;;4.13;1.77;;;17.50;65.60;;;;;;4922399;29;20046;-79
2022/10/04 09:26:35;;;;;;;1.65;1.55;;;17.50;65.60;;;;;;4942764;28;20525;-79
2022/10/04 09:29:07;;;;;;;1.73;1.60;;;17.50;65.80;;;;;;4954379;28;20046;-78
2022/10/04 09:31:39;;;;;;;1.80;1.70;;;17.50;64.60;;;;;;4950462;29;20085;-79
2022/10/04 09:34:04;;;;;;;6.57;2.03;;;17.40;64.80;;;;;;4962595;28;20203;-79
2022/10/04 09:36:54;;;;;;;2.97;1.70;;;17.50;64.50;;;;;;4952627;28;20047;-78
2022/10/04 09:39:29;;;;;;;2.78;1.63;;;17.40;64.10;;;;;;5055595;28;20205;-78
2022/10/04 09:42:29;;;;;;;4.65;2.00;;;17.40;64.20;;;;;;5053738;28;20029;-78
2022/10/04 09:45:10;;;;;;;2.28;1.73;;;17.50;64.50;;;;;;5023995;28;20041;-79
2022/10/04 09:47:44;;;;;;;1.80;1.50;;;17.50;65.30;;;;;;5037741;28;20123;-77
2022/10/04 09:50:17;;;;;;;3.90;1.35;;;17.50;65.00;;;;;;5040123;28;20055;-78
2022/10/04 09:52:56;;;;;;;1.58;1.33;;;17.50;64.40;;;;;;5059848;28;20155;-77
2022/10/04 09:55:24;;;;;;;4.63;1.73;;;17.50;64.10;;;;;;5060328;28;20436;-77
2022/10/04 09:58:24;;;;;;;1.42;1.33;;;17.40;63.50;;;;;;5029213;28;20416;-77
2022/10/04 10:00:58;;;;;;;2.08;1.42;;;17.40;64.10;;;;;;5025156;28;20033;-78
2022/10/04 10:03:46;;;;;;;1.50;1.40;;;17.40;64.00;;;;;;5025450;28;20468;-79
2022/10/04 10:06:25;;;;;;;3.35;1.38;;;17.30;64.00;;;;;;5043086;28;20086;-77
2022/10/04 10:09:19;;;;;;;4.97;1.70;;;17.30;64.00;;;;;;5042922;28;20033;-77
2022/10/04 10:15:06;;;;;;;2.60;1.60;;;17.30;63.60;;;;;;5062438;28;21287;-77
2022/10/04 10:17:39;;;;;;;2.83;1.85;;;17.20;64.20;;;;;;5046584;28;20045;-79
2022/10/04 10:20:42;;;;;;;1.77;1.58;;;17.30;64.50;;;;;;5054938;28;20103;-77
2022/10/04 10:23:14;;;;;;;3.13;1.80;;;17.30;65.30;;;;;;5052233;28;20488;-77
2022/10/04 10:26:02;;;;;;;1.73;1.52;;;17.20;63.70;;;;;;5068953;28;20115;-78
2022/10/04 10:28:40;;;;;;;1.98;1.73;;;17.20;64.00;;;;;;5052187;28;20038;-78
2022/10/04 10:31:34;;;;;;;3.08;1.60;;;17.20;64.80;;;;;;5054677;28;20093;-77
2022/10/04 10:34:12;;;;;;;2.17;1.40;;;17.30;65.20;;;;;;5071548;28;20559;-78
2022/10/04 10:36:53;;;;;;;5.38;1.63;;;17.30;64.80;;;;;;5016937;28;20037;-78
2022/10/04 10:39:43;;;;;;;1.85;1.40;;;17.30;65.00;;;;;;5061914;28;20037;-77
2022/10/04 10:42:29;;;;;;;2.28;1.60;;;17.30;64.80;;;;;;5028037;28;20109;-79
2022/10/04 10:45:22;;;;;;;1.63;1.52;;;17.40;64.90;;;;;;5035950;28;20459;-78
2022/10/04 10:48:04;;;;;;;2.75;1.42;;;17.30;64.50;;;;;;5041616;28;20033;-78
2022/10/04 10:50:58;;;;;;;2.00;1.80;;;17.30;64.30;;;;;;5040458;28;20131;-81
2022/10/04 10:54:04;;;;;;;2.83;1.63;;;17.30;64.60;;;;;;5041934;28;20131;-78
2022/10/04 10:56:55;;;;;;;3.05;1.77;;;17.20;65.50;;;;;;5028288;28;20037;-82
2022/10/04 11:00:00;;;;;;;1.73;1.38;;;17.20;66.00;;;;;;5033215;28;20029;-82
2022/10/04 11:03:11;;;;;;;2.40;1.48;;;17.20;67.40;;;;;;5071226;28;20511;-82
2022/10/04 11:06:00;;;;;;;1.85;1.55;;;17.20;68.90;;;;;;5054155;28;20040;-81
2022/10/04 11:08:44;;;;;;;2.00;1.40;;;17.10;70.50;;;;;;5053742;28;20418;-83
2022/10/04 11:11:40;;;;;;;4.57;1.40;;;17.10;71.50;;;;;;5052160;28;20029;-82
2022/10/04 11:14:40;;;;;;;1.17;1.10;;;17.00;72.10;;;;;;5071867;28;20032;-82
2022/10/04 11:17:28;;;;;;;1.35;0.90;;;17.00;72.30;;;;;;5071612;28;20094;-81
2022/10/04 11:20:03;;;;;;;3.15;1.10;;;16.90;72.70;;;;;;5038466;28;20286;-83
2022/10/04 11:23:07;;;;;;;1.38;1.02;;;16.90;73.30;;;;;;5032726;28;20182;-83
2022/10/04 11:25:56;;;;;;;2.33;0.90;;;16.90;72.70;;;;;;5057294;28;20518;-83
2022/10/04 11:28:45;;;;;;;0.93;0.60;;;16.80;72.60;;;;;;5024558;28;20453;-83
2022/10/04 11:31:30;;;;;;;2.80;0.70;;;16.70;72.40;;;;;;5037255;28;20037;-83
2022/10/04 11:34:10;;;;;;;0.90;0.63;;;16.70;72.60;;;;;;5034223;28;20036;-83
2022/10/04 11:37:01;;;;;;;1.27;0.57;;;16.70;72.50;;;;;;5052456;28;20091;-82
2022/10/04 11:39:52;;;;;;;1.48;0.55;;;16.60;72.30;;;;;;5050151;28;20882;-81
2022/10/04 11:42:20;;;;;;;1.75;0.85;;;16.50;72.10;;;;;;5041265;28;20071;-83
2022/10/04 11:44:47;;;;;;;1.65;0.68;;;16.50;72.50;;;;;;5039858;28;20037;-82
2022/10/04 11:47:39;;;;;;;0.43;0.43;;;16.40;72.60;;;;;;5006075;28;20092;-83
2022/10/04 11:50:34;;;;;;;2.35;0.70;;;16.40;72.70;;;;;;5010703;28;20044;-79
2022/10/04 11:53:06;;;;;;;0.93;0.60;;;16.30;72.80;;;;;;5025533;28;20040;-83
2022/10/04 11:55:53;;;;;;;0.50;0.47;;;16.30;72.70;;;;;;5043495;28;20285;-82
2022/10/04 11:58:40;;;;;;;0.85;0.50;;;16.20;72.80;;;;;;5023314;28;20037;-82
2022/10/04 12:01:31;;;;;;;0.80;0.60;;;16.20;72.70;;;;;;5042499;28;20030;-81
2022/10/04 12:03:59;;;;;;;1.17;0.57;;;16.20;72.80;;;;;;5040300;28;20037;-82
2022/10/04 12:07:16;;;;;;;0.98;0.73;;;16.10;72.80;;;;;;5040631;28;20029;-80
2022/10/04 12:10:11;;;;;;;3.17;0.50;;;16.10;72.90;;;;;;5000387;28;20448;-80
2022/10/04 12:13:15;;;;;;;0.60;0.60;;;16.10;73.00;;;;;;5048172;28;20399;-80
2022/10/04 12:15:48;;;;;;;0.70;0.68;;;16.00;73.10;;;;;;5051569;28;20061;-82
2022/10/04 12:18:27;;;;;;;1.17;0.70;;;16.00;73.20;;;;;;5051485;28;20044;-81
2022/10/04 12:21:21;;;;;;;2.28;0.60;;;16.00;73.20;;;;;;5056446;28;20033;-93
2022/10/04 12:24:05;;;;;;;0.47;0.38;;;16.00;73.30;;;;;;5015515;28;20071;-80
2022/10/04 12:27:01;;;;;;;1.42;0.50;;;16.00;73.50;;;;;;5061384;28;20547;-83
2022/10/04 12:29:49;;;;;;;1.23;0.70;;;16.00;73.00;;;;;;5051716;28;20538;-80
2022/10/04 12:32:40;;;;;;;1.85;0.63;;;16.00;73.00;;;;;;5018167;28;20776;-80
2022/10/04 12:35:17;;;;;;;1.75;0.70;;;16.00;72.90;;;;;;5048738;28;20037;-80
2022/10/04 12:38:07;;;;;;;0.85;0.43;;;16.00;73.20;;;;;;5021375;28;20297;-81
2022/10/04 12:41:17;;;;;;;1.25;0.57;;;15.90;72.70;;;;;;5018451;28;20183;-81
2022/10/04 12:44:06;;;;;;;0.98;0.50;;;15.90;72.50;;;;;;4949484;29;20275;-81
2022/10/04 12:46:51;;;;;;;1.05;0.65;;;15.90;72.50;;;;;;4948649;28;20046;-81
2022/10/04 12:49:30;;;;;;;1.58;0.55;;;15.90;72.40;;;;;;4952933;28;20046;-81
2022/10/04 12:52:20;;;;;;;2.05;0.82;;;15.80;72.10;;;;;;4953228;28;20167;-82
2022/10/04 12:55:04;;;;;;;0.85;0.50;;;15.80;72.30;;;;;;4972642;28;20035;-81
2022/10/04 12:57:51;;;;;;;1.83;0.82;;;15.80;72.30;;;;;;4971194;28;20042;-81
2022/10/04 13:00:23;;;;;;;1.42;0.75;;;15.80;72.50;;;;;;4969955;28;20042;-81
2022/10/04 13:02:55;;;;;;;4.25;0.63;;;15.80;72.40;;;;;;4962928;28;20043;-81
2022/10/04 13:05:26;;;;;;;1.83;0.70;;;15.80;72.60;;;;;;4918039;28;20527;-81
2022/10/04 13:08:13;;;;;;;2.97;0.95;;;15.80;72.70;;;;;;4924178;28;20110;-82
2022/10/04 13:11:28;;;;;;;1.05;0.52;;;15.70;73.10;;;;;;4937726;28;20051;-81
2022/10/04 13:14:13;;;;;;;0.98;0.75;;;15.70;73.30;;;;;;5037129;28;20714;-81
2022/10/04 13:17:04;;;;;;;1.40;0.80;;;15.70;73.20;;;;;;5008410;28;20504;-81
2022/10/04 13:19:49;;;;;;;3.70;0.98;;;15.70;73.30;;;;;;5047571;28;20171;-81
2022/10/04 13:22:45;;;;;;;1.65;0.82;;;15.70;73.50;;;;;;5015109;28;20033;-82
2022/10/04 13:25:20;;;;;;;1.55;0.90;;;15.70;73.70;;;;;;5028471;28;20087;-82
2022/10/04 13:28:06;;;;;;;1.30;0.80;;;15.70;73.70;;;;;;5042661;28;20057;-82
2022/10/04 13:30:49;;;;;;;1.67;0.88;;;15.70;73.60;;;;;;5045770;28;20508;-82
2022/10/04 13:33:34;;;;;;;1.65;0.70;;;15.70;73.50;;;;;;5051164;28;20033;-81
2022/10/04 13:36:18;;;;;;;1.10;0.65;;;15.70;73.70;;;;;;5035821;28;20090;-82
2022/10/04 13:39:17;;;;;;;1.55;0.68;;;15.70;73.60;;;;;;5008592;28;20056;-84
2022/10/04 13:42:02;;;;;;;3.50;0.95;;;15.70;73.60;;;;;;5057128;28;20040;-83
2022/10/04 13:44:48;;;;;;;2.88;1.10;;;15.70;73.80;;;;;;5064899;28;20045;-83
2022/10/04 13:47:43;;;;;;;1.95;0.70;;;15.70;73.60;;;;;;5016700;28;20041;-81
2022/10/04 13:50:24;;;;;;;1.70;0.70;;;15.60;73.50;;;;;;5017110;28;20041;-81
2022/10/04 13:56:35;;;;;;;1.58;0.60;;;15.60;73.00;;;;;;4969583;28;20134;-77
2022/10/04 13:59:08;;;;;;;2.22;0.80;;;15.60;73.00;;;;;;4955785;28;20616;-80
2022/10/04 14:02:09;;;;;;;1.58;0.80;;;15.60;72.70;;;;;;4964990;28;20051;-79
2022/10/04 14:04:58;;;;;;;1.90;0.50;;;15.60;72.60;;;;;;4950148;28;20485;-78
2022/10/04 14:08:01;;;;;;;3.63;0.82;;;15.50;72.60;;;;;;4947408;28;20085;-77